Time;durP1;ratioP1;P1;durP2;ratioP2;P2;SDS_P1;SDS_P2;PMS_P1;PMS_P2;Temp;Humidity;BMP_temperature;BMP_pressure;BME280_temperature;BME280_humidity;BME280_pressure;Samples;Min_cycle;Max_cycle;Signal;HPM_P1;HPM_P2
2022/05/25 00:01:26;;;;;;;15.05;7.50;;;8.50;99.90;;;;;;5051538;28;20399;-50
2022/05/25 00:03:52;;;;;;;13.55;7.82;;;8.40;99.90;;;;;;5051592;28;20064;-45
2022/05/25 00:06:18;;;;;;;10.65;8.38;;;8.30;99.90;;;;;;5051952;28;20115;-45
2022/05/25 00:08:44;;;;;;;10.00;8.25;;;8.50;99.90;;;;;;5052915;28;20036;-47
2022/05/25 00:11:10;;;;;;;12.98;8.25;;;8.40;99.90;;;;;;5051648;28;20114;-47
2022/05/25 00:13:36;;;;;;;12.93;8.55;;;9.20;99.90;;;;;;5052221;28;20485;-48
2022/05/25 00:16:05;;;;;;;9.95;8.70;;;9.10;99.90;;;;;;5051974;28;20758;-45
2022/05/25 00:18:34;;;;;;;12.30;9.43;;;8.40;99.90;;;;;;5051706;28;20040;-46
2022/05/25 00:21:00;;;;;;;12.32;8.40;;;8.30;99.90;;;;;;5054068;28;20037;-48
2022/05/25 00:23:26;;;;;;;12.73;8.57;;;8.30;99.90;;;;;;5053109;28;20075;-48
2022/05/25 00:25:52;;;;;;;12.48;8.88;;;8.40;99.90;;;;;;5051932;28;20509;-46
2022/05/25 00:28:17;;;;;;;14.02;8.82;;;8.40;99.90;;;;;;5051456;28;20045;-45
2022/05/25 00:30:45;;;;;;;14.20;8.02;;;9.30;99.90;;;;;;5053031;28;20694;-47
2022/05/25 00:33:13;;;;;;;11.52;8.50;;;9.30;99.90;;;;;;5052155;28;20041;-47
2022/05/25 00:35:40;;;;;;;9.77;7.00;;;8.40;99.90;;;;;;5051681;28;20064;-49
2022/05/25 00:38:08;;;;;;;10.52;8.73;;;8.10;99.90;;;;;;5050605;28;20053;-47
2022/05/25 00:40:35;;;;;;;14.80;9.95;;;7.80;99.90;;;;;;5052289;28;20112;-47
2022/05/25 00:43:01;;;;;;;12.65;9.93;;;8.00;99.90;;;;;;5047709;28;20045;-47
2022/05/25 00:45:31;;;;;;;12.13;9.68;;;8.00;99.90;;;;;;5051541;28;20530;-48
2022/05/25 00:47:57;;;;;;;14.63;10.57;;;8.00;99.90;;;;;;5051158;28;20056;-45
2022/05/25 00:50:24;;;;;;;14.25;11.27;;;9.20;99.90;;;;;;5052335;28;20066;-45
2022/05/25 00:52:51;;;;;;;18.35;11.52;;;7.90;99.90;;;;;;5051323;28;20036;-49
2022/05/25 00:55:27;;;;;;;14.45;12.55;;;8.60;99.90;;;;;;5050934;28;20047;-51
2022/05/25 00:57:58;;;;;;;14.10;12.60;;;7.90;99.90;;;;;;5051658;28;20053;-47
2022/05/25 01:00:27;;;;;;;19.40;12.68;;;8.00;99.90;;;;;;5051690;28;20029;-45
2022/05/25 01:02:59;;;;;;;17.52;12.27;;;8.00;99.90;;;;;;5052024;28;20044;-50
2022/05/25 01:05:39;;;;;;;;;;;7.90;99.90;;;;;;5055402;28;20123;-45
2022/05/25 01:08:32;;;;;;;14.35;10.93;;;8.00;99.90;;;;;;5054435;28;19931;-45
2022/05/25 01:11:43;;;;;;;13.65;11.32;;;8.20;99.90;;;;;;5054728;28;20044;-47
2022/05/25 01:14:47;;;;;;;14.52;11.55;;;8.10;99.90;;;;;;5051111;28;20055;-47
2022/05/25 01:17:37;;;;;;;12.32;10.77;;;8.00;99.90;;;;;;5053204;28;20531;-46
2022/05/25 01:20:11;;;;;;;15.80;11.65;;;8.00;99.90;;;;;;5055326;28;20052;-45
2022/05/25 01:22:55;;;;;;;15.45;11.68;;;8.10;99.90;;;;;;5055127;28;20109;-45
2022/05/25 01:25:56;;;;;;;16.15;11.57;;;7.90;99.90;;;;;;5055271;28;20040;-44
2022/05/25 01:28:59;;;;;;;14.50;11.02;;;8.00;99.90;;;;;;5031647;28;20072;-44
2022/05/25 01:31:27;;;;;;;;;;;8.00;99.90;;;;;;5033424;28;20072;-44
2022/05/25 01:34:01;;;;;;;15.80;11.52;;;8.60;99.90;;;;;;5031186;28;19943;-45
2022/05/25 01:36:47;;;;;;;17.17;11.73;;;7.90;99.90;;;;;;5032840;28;20656;-44
2022/05/25 01:39:18;;;;;;;15.50;11.23;;;8.10;99.90;;;;;;5031077;28;20057;-45
2022/05/25 01:41:44;;;;;;;14.65;11.90;;;7.90;99.90;;;;;;5032091;28;20045;-44
2022/05/25 01:44:18;;;;;;;18.08;12.38;;;8.10;99.90;;;;;;5031353;28;20853;-45
2022/05/25 01:46:54;;;;;;;17.48;12.15;;;8.10;99.90;;;;;;5030930;28;20041;-44
2022/05/25 01:49:24;;;;;;;14.00;11.60;;;7.80;99.90;;;;;;5032645;28;20052;-43
2022/05/25 01:51:57;;;;;;;15.95;12.15;;;8.00;99.90;;;;;;5033438;28;20493;-45
2022/05/25 01:54:32;;;;;;;16.30;12.63;;;9.10;99.90;;;;;;5015378;28;20060;-46
2022/05/25 01:57:03;;;;;;;17.00;12.63;;;9.00;99.90;;;;;;5030309;28;20040;-47
2022/05/25 01:59:29;;;;;;;16.65;12.02;;;8.40;99.90;;;;;;5030934;28;20414;-45
2022/05/25 02:04:48;;;;;;;18.02;13.18;;;7.80;99.90;;;;;;5040250;28;20181;-44
2022/05/25 02:07:40;;;;;;;18.35;12.55;;;7.90;99.90;;;;;;5054061;28;20561;-45
2022/05/25 02:10:23;;;;;;;18.13;13.30;;;8.20;99.90;;;;;;5053396;28;20123;-45
2022/05/25 02:13:31;;;;;;;20.25;13.05;;;7.80;99.90;;;;;;5051599;28;20126;-45
2022/05/25 02:16:22;;;;;;;15.90;12.40;;;7.90;99.90;;;;;;5026975;28;20125;-44
2022/05/25 02:19:22;;;;;;;16.93;13.37;;;7.70;99.90;;;;;;5010039;28;20041;-44
2022/05/25 02:21:59;;;;;;;19.73;14.18;;;7.90;99.90;;;;;;5012466;28;20640;-45
2022/05/25 02:24:28;;;;;;;18.33;13.48;;;7.90;99.90;;;;;;5009853;28;20115;-44
2022/05/25 02:27:23;;;;;;;24.08;14.98;;;8.50;99.90;;;;;;5024898;28;20556;-45
2022/05/25 02:29:50;;;;;;;19.70;13.85;;;7.70;99.90;;;;;;5009632;28;20134;-44
2022/05/25 02:32:23;;;;;;;18.10;13.63;;;7.80;99.90;;;;;;5010410;28;20136;-43
2022/05/25 02:34:50;;;;;;;;;;;7.80;99.90;;;;;;5010496;28;20066;-45
2022/05/25 02:37:19;;;;;;;20.30;14.43;;;8.90;99.90;;;;;;5009950;28;19925;-45
2022/05/25 02:39:46;;;;;;;19.83;14.27;;;7.80;99.90;;;;;;5011696;28;20051;-47
2022/05/25 02:42:14;;;;;;;23.13;14.30;;;7.90;99.90;;;;;;5010343;28;20808;-47
2022/05/25 02:44:43;;;;;;;24.25;14.52;;;7.60;99.90;;;;;;5010792;28;20042;-45
2022/05/25 02:47:10;;;;;;;18.95;13.57;;;7.90;99.90;;;;;;5010697;28;20083;-44
2022/05/25 02:49:36;;;;;;;18.45;13.95;;;7.80;99.90;;;;;;5011396;28;20826;-50
2022/05/25 02:52:03;;;;;;;22.40;14.23;;;7.70;99.90;;;;;;5015027;28;20045;-50
2022/05/25 02:54:28;;;;;;;18.80;13.63;;;7.80;99.90;;;;;;5053076;28;20044;-48
2022/05/25 02:56:56;;;;;;;19.90;14.00;;;7.80;99.90;;;;;;5052136;28;20044;-48
2022/05/25 02:59:22;;;;;;;27.98;17.10;;;7.80;99.90;;;;;;5054246;28;20167;-50
2022/05/25 03:01:47;;;;;;;19.17;14.77;;;7.70;99.90;;;;;;5053932;28;20525;-50
2022/05/25 03:04:14;;;;;;;27.30;15.88;;;7.80;99.90;;;;;;5053084;28;20110;-48
2022/05/25 03:06:41;;;;;;;21.88;15.50;;;9.30;99.90;;;;;;5053035;28;20047;-50
2022/05/25 03:09:07;;;;;;;27.88;17.65;;;8.00;99.90;;;;;;5052981;28;20045;-48
2022/05/25 03:11:33;;;;;;;26.20;17.17;;;7.80;99.90;;;;;;5052479;28;20039;-48
2022/05/25 03:14:00;;;;;;;29.92;16.98;;;7.80;99.90;;;;;;5046420;28;20045;-50
2022/05/25 03:16:27;;;;;;;25.08;16.58;;;7.90;99.90;;;;;;5052776;28;20512;-49
2022/05/25 03:18:52;;;;;;;28.88;18.42;;;7.70;99.90;;;;;;5051194;28;20055;-45
2022/05/25 03:21:20;;;;;;;24.75;18.50;;;7.70;99.90;;;;;;5053263;28;20899;-48
2022/05/25 03:23:46;;;;;;;26.95;18.50;;;7.90;99.90;;;;;;5052158;28;20036;-44
2022/05/25 03:26:12;;;;;;;27.08;18.73;;;7.70;99.90;;;;;;5053485;28;20051;-47
2022/05/25 03:28:38;;;;;;;25.10;18.58;;;7.80;99.90;;;;;;5052504;28;20040;-45
2022/05/25 03:31:04;;;;;;;33.42;19.63;;;7.80;99.90;;;;;;5052126;28;20037;-43
2022/05/25 03:33:31;;;;;;;28.17;18.95;;;8.80;99.90;;;;;;5052874;28;20516;-44
2022/05/25 03:35:56;;;;;;;29.17;19.30;;;8.70;99.90;;;;;;5051530;28;20970;-45
2022/05/25 03:38:22;;;;;;;27.27;18.92;;;7.90;99.90;;;;;;5052631;28;20060;-48
2022/05/25 03:40:48;;;;;;;25.77;18.65;;;7.90;99.90;;;;;;5051921;28;20110;-50
2022/05/25 03:43:18;;;;;;;32.70;19.63;;;7.80;99.90;;;;;;5051740;28;20040;-46
2022/05/25 03:45:45;;;;;;;31.50;20.27;;;8.30;99.90;;;;;;5050194;28;20511;-45
2022/05/25 03:48:10;;;;;;;28.60;19.60;;;9.00;99.90;;;;;;5050239;28;20508;-44
2022/05/25 03:50:41;;;;;;;26.45;18.20;;;8.00;99.90;;;;;;5053170;28;20090;-45
2022/05/25 03:53:14;;;;;;;32.17;21.08;;;8.10;99.90;;;;;;5054302;28;20508;-44
2022/05/25 03:55:41;;;;;;;28.67;20.70;;;8.10;99.90;;;;;;5052914;28;20044;-47
2022/05/25 03:58:09;;;;;;;32.45;21.13;;;8.00;99.90;;;;;;5052853;28;20060;-46
2022/05/25 04:00:35;;;;;;;31.67;21.23;;;8.10;99.90;;;;;;5053207;28;20052;-45
2022/05/25 04:03:03;;;;;;;30.65;20.60;;;8.30;99.90;;;;;;5051801;28;20033;-44
2022/05/25 04:05:31;;;;;;;31.35;20.15;;;8.20;99.90;;;;;;5052175;28;20149;-46
2022/05/25 04:07:58;;;;;;;30.13;21.02;;;9.10;99.90;;;;;;5053610;28;20060;-47
2022/05/25 04:10:27;;;;;;;30.08;20.60;;;8.30;99.90;;;;;;5084877;28;20040;-44
2022/05/25 04:12:52;;;;;;;29.75;20.23;;;8.40;99.90;;;;;;5051635;28;20070;-45
2022/05/25 04:15:21;;;;;;;30.70;19.90;;;9.60;99.90;;;;;;5052556;28;20041;-44
2022/05/25 04:17:50;;;;;;;28.20;19.52;;;8.40;99.90;;;;;;5052413;28;20331;-46
2022/05/25 04:20:17;;;;;;;30.73;20.08;;;8.50;99.90;;;;;;5052671;28;20036;-45
2022/05/25 04:22:44;;;;;;;32.63;19.45;;;8.50;99.90;;;;;;5052671;28;20546;-44
2022/05/25 04:25:13;;;;;;;26.80;19.10;;;9.80;99.90;;;;;;5051570;28;20033;-46
2022/05/25 04:27:41;;;;;;;25.50;17.85;;;8.60;99.90;;;;;;5051546;28;20044;-44
2022/05/25 04:30:09;;;;;;;27.30;17.92;;;9.00;99.90;;;;;;5051783;28;20067;-44
2022/05/25 04:32:35;;;;;;;23.13;16.65;;;8.90;99.90;;;;;;5051415;28;20115;-44
2022/05/25 04:35:01;;;;;;;24.70;18.17;;;9.00;99.90;;;;;;5052523;28;20042;-44
2022/05/25 04:40:17;;;;;;;19.75;14.85;;;9.20;99.90;;;;;;5054749;28;20055;-46
2022/05/25 04:42:43;;;;;;;18.95;14.55;;;9.20;99.90;;;;;;5053585;28;20032;-44
2022/05/25 04:45:10;;;;;;;18.52;14.85;;;9.30;99.90;;;;;;5055880;28;20040;-46
2022/05/25 04:47:38;;;;;;;18.95;14.63;;;9.50;99.90;;;;;;5055538;28;20585;-45
2022/05/25 04:50:07;;;;;;;23.02;14.68;;;10.30;99.90;;;;;;5054322;28;20059;-44
2022/05/25 04:52:37;;;;;;;18.42;14.40;;;9.70;99.90;;;;;;5054968;28;20128;-47
2022/05/25 04:55:06;;;;;;;21.35;14.80;;;9.80;99.90;;;;;;5052820;28;20408;-45
2022/05/25 04:57:31;;;;;;;19.25;14.48;;;9.90;99.90;;;;;;5053841;28;20182;-44
2022/05/25 04:59:59;;;;;;;17.83;14.90;;;9.90;99.90;;;;;;5054615;28;20054;-46
2022/05/25 05:02:29;;;;;;;16.55;14.18;;;10.10;99.90;;;;;;5055408;28;20059;-44
2022/05/25 05:04:55;;;;;;;19.15;13.05;;;10.00;99.90;;;;;;5055339;28;20032;-44
2022/05/25 05:07:33;;;;;;;21.08;14.10;;;10.10;99.90;;;;;;5054091;28;20036;-48
2022/05/25 05:10:01;;;;;;;18.75;13.73;;;10.20;99.90;;;;;;5053958;28;20354;-48
2022/05/25 05:12:28;;;;;;;15.93;13.13;;;10.40;99.90;;;;;;5046032;28;20099;-46
2022/05/25 05:14:55;;;;;;;17.30;13.70;;;10.40;99.90;;;;;;5054623;28;20044;-46
2022/05/25 05:17:21;;;;;;;16.48;12.30;;;10.60;99.90;;;;;;5055466;28;20050;-47
2022/05/25 05:19:47;;;;;;;18.85;13.07;;;10.60;99.90;;;;;;5055350;28;20815;-49
2022/05/25 05:22:15;;;;;;;17.52;12.60;;;11.40;99.90;;;;;;5055997;28;20036;-49
2022/05/25 05:24:41;;;;;;;15.95;12.52;;;10.80;99.90;;;;;;5053818;28;20048;-49
2022/05/25 05:27:06;;;;;;;16.17;12.27;;;10.90;99.90;;;;;;5054584;28;20048;-48
2022/05/25 05:29:33;;;;;;;16.17;11.57;;;11.20;99.90;;;;;;5054322;28;20083;-48
2022/05/25 05:31:59;;;;;;;15.93;11.75;;;11.90;99.90;;;;;;5053987;28;20528;-46
2022/05/25 05:34:28;;;;;;;15.05;11.65;;;11.20;99.90;;;;;;5055242;28;20052;-48
2022/05/25 05:37:13;;;;;;;16.63;11.20;;;11.40;99.90;;;;;;5054907;28;20045;-48
2022/05/25 05:39:43;;;;;;;15.55;11.00;;;11.60;99.90;;;;;;5052799;28;20045;-50
2022/05/25 05:42:15;;;;;;;16.00;10.73;;;12.60;99.90;;;;;;5053855;28;20041;-49
2022/05/25 05:45:04;;;;;;;17.67;11.23;;;11.60;99.90;;;;;;5054478;28;20048;-47
2022/05/25 05:47:45;;;;;;;15.75;11.35;;;11.80;99.90;;;;;;5053190;28;20044;-47
2022/05/25 05:50:12;;;;;;;15.30;10.13;;;11.80;99.90;;;;;;5053444;28;21099;-47
2022/05/25 05:52:41;;;;;;;14.73;10.15;;;12.10;99.90;;;;;;5054603;28;20048;-46
2022/05/25 05:55:07;;;;;;;17.23;10.60;;;12.30;99.90;;;;;;5053929;28;20048;-45
2022/05/25 05:57:35;;;;;;;13.63;10.63;;;12.20;99.90;;;;;;5054089;28;20070;-47
2022/05/25 06:00:01;;;;;;;14.70;10.38;;;12.40;99.90;;;;;;5053061;28;20425;-50
2022/05/25 06:02:26;;;;;;;17.95;11.57;;;12.40;99.90;;;;;;5053649;28;20102;-48
2022/05/25 06:04:52;;;;;;;13.93;9.98;;;12.40;99.90;;;;;;5053861;28;20308;-46
2022/05/25 06:07:20;;;;;;;12.70;10.15;;;13.40;99.90;;;;;;5051568;28;20045;-46
2022/05/25 06:09:46;;;;;;;12.35;9.70;;;12.60;99.90;;;;;;5053120;28;20143;-48
2022/05/25 06:12:11;;;;;;;12.75;9.43;;;13.40;99.90;;;;;;5054146;28;20340;-47
2022/05/25 06:14:40;;;;;;;12.02;9.05;;;13.30;99.90;;;;;;5053223;28;20546;-48
2022/05/25 06:19:51;;;;;;;14.75;8.98;;;13.20;99.90;;;;;;5052527;28;20105;-44
2022/05/25 06:22:18;;;;;;;10.45;7.47;;;13.50;99.90;;;;;;5054758;28;20033;-48
2022/05/25 06:24:49;;;;;;;10.68;7.05;;;14.30;99.90;;;;;;5054232;28;20056;-50
2022/05/25 06:27:16;;;;;;;10.80;7.13;;;17.00;99.90;;;;;;5052850;28;20453;-47
2022/05/25 06:29:46;;;;;;;9.95;6.90;;;15.40;99.90;;;;;;5052939;28;20071;-48
2022/05/25 06:32:15;;;;;;;9.25;7.13;;;15.40;99.90;;;;;;5053113;28;20040;-48
2022/05/25 06:34:47;;;;;;;13.73;7.10;;;15.00;99.90;;;;;;5053376;28;20390;-49
2022/05/25 06:37:19;;;;;;;11.85;7.22;;;14.80;99.90;;;;;;5052121;28;20054;-49
2022/05/25 06:39:47;;;;;;;;;;;14.60;99.90;;;;;;5054015;28;20047;-48
2022/05/25 06:42:13;;;;;;;11.07;7.25;;;14.50;99.90;;;;;;5053435;28;19924;-44
2022/05/25 06:44:39;;;;;;;10.88;7.07;;;14.70;99.90;;;;;;5053630;28;20111;-46
2022/05/25 06:47:05;;;;;;;9.98;6.80;;;15.30;99.90;;;;;;5053322;28;20067;-43
2022/05/25 06:49:31;;;;;;;16.90;7.22;;;15.00;99.90;;;;;;5054400;28;20401;-45
2022/05/25 06:51:57;;;;;;;11.93;6.60;;;15.50;99.90;;;;;;5055008;28;20051;-45
2022/05/25 06:54:23;;;;;;;11.68;6.53;;;18.60;99.90;;;;;;5055410;28;20048;-49
2022/05/25 06:56:50;;;;;;;14.48;6.90;;;17.60;99.90;;;;;;5053009;28;20033;-44
2022/05/25 06:59:15;;;;;;;9.23;5.13;;;18.10;99.90;;;;;;5052720;28;20908;-44
2022/05/25 07:01:42;;;;;;;12.68;5.97;;;20.30;99.90;;;;;;5054972;28;20033;-48
2022/05/25 07:04:10;;;;;;;11.10;5.25;;;19.00;99.90;;;;;;5053305;28;20036;-46
2022/05/25 07:06:37;;;;;;;11.25;5.57;;;19.40;99.90;;;;;;5052889;28;20108;-47
2022/05/25 07:09:05;;;;;;;8.85;5.35;;;19.90;99.90;;;;;;5053951;28;20040;-46
2022/05/25 07:11:34;;;;;;;7.63;4.68;;;20.50;99.90;;;;;;5054293;28;20386;-48
2022/05/25 07:14:00;;;;;;;9.43;4.65;;;21.60;99.90;;;;;;5055100;28;20489;-48
2022/05/25 07:16:26;;;;;;;8.15;4.88;;;23.60;99.90;;;;;;5051725;28;20051;-51
2022/05/25 07:18:54;;;;;;;11.60;5.38;;;21.50;99.90;;;;;;5053429;28;20048;-49
2022/05/25 07:21:25;;;;;;;6.72;4.53;;;21.30;99.90;;;;;;5051971;28;20231;-45
2022/05/25 07:23:52;;;;;;;7.60;4.57;;;21.20;99.90;;;;;;5051839;28;20048;-48
2022/05/25 07:26:20;;;;;;;7.95;4.40;;;21.20;99.90;;;;;;5052517;28;20687;-45
2022/05/25 07:28:46;;;;;;;7.43;4.03;;;21.50;99.90;;;;;;5052555;28;20029;-48
2022/05/25 07:31:24;;;;;;;6.93;3.88;;;20.50;99.90;;;;;;5052600;28;20029;-49
2022/05/25 07:34:18;;;;;;;7.93;3.85;;;19.90;99.90;;;;;;5051649;28;20050;-49
2022/05/25 07:36:49;;;;;;;8.02;3.80;;;20.20;99.90;;;;;;5029315;28;20045;-46
2022/05/25 07:39:17;;;;;;;8.45;4.10;;;21.10;99.90;;;;;;5028588;28;20580;-50
2022/05/25 07:41:48;;;;;;;6.75;4.25;;;21.80;99.90;;;;;;5029276;28;20048;-48
2022/05/25 07:44:20;;;;;;;10.77;4.78;;;21.50;99.90;;;;;;5030048;28;20109;-50
2022/05/25 07:46:46;;;;;;;10.02;4.05;;;21.10;99.90;;;;;;5030016;28;20040;-48
2022/05/25 07:49:12;;;;;;;8.25;3.50;;;20.50;99.90;;;;;;5029514;28;20064;-48
2022/05/25 07:51:39;;;;;;;7.00;4.13;;;19.90;99.90;;;;;;5029504;28;20048;-47
2022/05/25 07:54:05;;;;;;;6.05;4.00;;;19.00;99.90;;;;;;5030486;28;20083;-49
2022/05/25 07:56:34;;;;;;;8.68;4.57;;;19.60;99.90;;;;;;5028977;28;20040;-50
2022/05/25 07:59:08;;;;;;;8.05;4.57;;;20.00;99.90;;;;;;5029327;28;20526;-51
2022/05/25 08:07:12;;;;;;;7.28;3.95;;;21.30;99.90;;;;;;5027951;28;20120;-51
2022/05/25 08:09:38;;;;;;;10.65;3.97;;;21.00;99.90;;;;;;5029588;28;20036;-49
2022/05/25 08:12:06;;;;;;;8.68;3.90;;;22.60;99.90;;;;;;5034711;28;20044;-50
2022/05/25 08:14:32;;;;;;;7.68;4.05;;;20.40;99.90;;;;;;5052173;28;20063;-47
2022/05/25 08:17:00;;;;;;;8.43;3.35;;;20.10;99.90;;;;;;5057085;28;20044;-48
2022/05/25 08:19:26;;;;;;;7.25;3.72;;;20.30;99.90;;;;;;5056886;28;20049;-48
2022/05/25 08:21:52;;;;;;;8.48;4.20;;;20.10;99.90;;;;;;5058049;28;20460;-45
2022/05/25 08:24:20;;;;;;;8.85;4.32;;;22.00;99.90;;;;;;5058002;28;20135;-47
2022/05/25 08:26:46;;;;;;;5.95;2.90;;;19.90;99.90;;;;;;5056272;28;20047;-48
2022/05/25 08:29:12;;;;;;;6.97;3.30;;;19.80;99.90;;;;;;5055930;28;20040;-51
2022/05/25 08:31:37;;;;;;;6.65;3.25;;;19.70;99.90;;;;;;5056209;28;20141;-49
2022/05/25 08:34:04;;;;;;;5.22;2.83;;;19.60;99.90;;;;;;5055513;28;20527;-51
2022/05/25 08:36:31;;;;;;;7.93;3.15;;;19.90;99.90;;;;;;5054713;28;20129;-47
2022/05/25 08:38:58;;;;;;;6.68;3.05;;;19.80;99.90;;;;;;5054281;28;20186;-49
2022/05/25 08:41:30;;;;;;;6.45;2.80;;;20.00;99.90;;;;;;5052675;28;20357;-49
2022/05/25 08:43:57;;;;;;;5.93;2.90;;;21.70;99.90;;;;;;5056767;28;20036;-46
2022/05/25 08:46:25;;;;;;;7.45;3.28;;;19.60;99.90;;;;;;5055536;28;20438;-46
2022/05/25 08:48:51;;;;;;;8.27;3.22;;;19.40;99.90;;;;;;5054583;28;20350;-48
2022/05/25 08:51:22;;;;;;;7.25;3.28;;;19.30;99.90;;;;;;5054963;28;20622;-47
2022/05/25 08:53:48;;;;;;;7.53;3.28;;;19.20;99.90;;;;;;5055742;28;20046;-48
2022/05/25 08:56:49;;;;;;;7.50;3.55;;;19.00;99.90;;;;;;5054779;28;20037;-47
2022/05/25 08:59:30;;;;;;;5.03;2.63;;;18.60;99.90;;;;;;4998127;28;20093;-48
2022/05/25 09:02:13;;;;;;;5.95;2.88;;;18.20;99.90;;;;;;4996316;28;20050;-48
2022/05/25 09:04:53;;;;;;;10.02;3.20;;;18.80;99.90;;;;;;4997677;28;20042;-48
2022/05/25 09:07:32;;;;;;;10.00;3.83;;;17.90;99.90;;;;;;4996108;28;20085;-45
2022/05/25 09:09:58;;;;;;;6.47;3.58;;;17.80;99.90;;;;;;4991543;28;20147;-49
2022/05/25 09:12:43;;;;;;;8.40;3.40;;;17.70;99.90;;;;;;4999255;28;20565;-47
2022/05/25 09:15:28;;;;;;;7.18;3.08;;;17.60;99.90;;;;;;4995413;28;20108;-46
2022/05/25 09:17:59;;;;;;;7.38;3.78;;;17.70;99.90;;;;;;4999769;28;20346;-47
2022/05/25 09:20:51;;;;;;;7.45;3.47;;;17.70;99.90;;;;;;4995274;28;20549;-47
2022/05/25 09:23:18;;;;;;;9.02;3.42;;;18.10;99.90;;;;;;4994902;28;20053;-49
2022/05/25 09:25:46;;;;;;;9.93;3.30;;;17.90;99.90;;;;;;4997468;28;20278;-51
2022/05/25 09:28:16;;;;;;;7.30;3.05;;;18.10;99.90;;;;;;4997453;28;20428;-45
2022/05/25 09:30:45;;;;;;;9.27;3.28;;;18.80;99.90;;;;;;4998955;28;20111;-46
2022/05/25 09:33:32;;;;;;;8.35;3.50;;;17.80;99.90;;;;;;4997048;28;20034;-47
2022/05/25 09:36:02;;;;;;;5.40;3.08;;;18.20;99.90;;;;;;5049145;28;20048;-49
2022/05/25 09:38:42;;;;;;;5.78;3.33;;;19.30;99.90;;;;;;5053820;28;20536;-50
2022/05/25 09:41:11;;;;;;;7.57;2.83;;;18.00;99.90;;;;;;5054779;28;20065;-51
2022/05/25 09:43:39;;;;;;;6.05;3.03;;;18.10;99.90;;;;;;5054759;28;20647;-47
2022/05/25 09:46:27;;;;;;;9.23;3.15;;;17.80;99.90;;;;;;5054267;28;20041;-49
2022/05/25 09:49:02;;;;;;;5.72;2.78;;;17.90;99.90;;;;;;5053458;28;20041;-45
2022/05/25 09:51:41;;;;;;;7.43;3.13;;;17.90;99.90;;;;;;5053950;28;20048;-46
2022/05/25 09:54:26;;;;;;;7.50;2.88;;;17.90;99.90;;;;;;5055589;28;20493;-47
2022/05/25 09:57:02;;;;;;;8.60;3.22;;;17.90;99.90;;;;;;5052916;28;20639;-51
2022/05/25 09:59:32;;;;;;;5.82;2.60;;;18.20;99.90;;;;;;5053113;28;20056;-57
2022/05/25 10:01:59;;;;;;;5.72;2.28;;;17.80;99.90;;;;;;5054312;28;20044;-50
2022/05/25 10:04:51;;;;;;;7.00;2.80;;;18.20;99.90;;;;;;5054914;28;20234;-49
2022/05/25 10:07:29;;;;;;;11.68;4.00;;;17.50;99.90;;;;;;5052854;28;20075;-47
2022/05/25 10:10:03;;;;;;;6.65;2.92;;;16.70;99.90;;;;;;5053533;28;20157;-47
2022/05/25 10:12:42;;;;;;;10.68;3.63;;;17.30;99.90;;;;;;5053006;28;20349;-48
2022/05/25 10:15:14;;;;;;;9.30;3.67;;;17.60;99.90;;;;;;5053478;28;20049;-50
2022/05/25 10:17:43;;;;;;;7.40;2.97;;;17.70;99.90;;;;;;5053218;28;20044;-47
2022/05/25 10:20:24;;;;;;;6.57;2.90;;;18.50;99.90;;;;;;5054152;28;20562;-48
2022/05/25 10:23:07;;;;;;;6.80;2.85;;;17.70;99.90;;;;;;5053518;28;20048;-49
2022/05/25 10:25:42;;;;;;;9.02;2.72;;;17.30;99.90;;;;;;5055265;28;20105;-47
2022/05/25 10:28:33;;;;;;;9.02;3.15;;;17.90;99.90;;;;;;5052195;28;20044;-48
2022/05/25 10:37:00;;;;;;;6.65;3.33;;;16.20;99.90;;;;;;5054151;28;20393;-49
2022/05/25 10:39:29;;;;;;;7.18;4.07;;;16.20;99.90;;;;;;5052991;28;20053;-49
2022/05/25 10:42:04;;;;;;;6.13;3.60;;;16.00;99.90;;;;;;5053406;28;20148;-50
2022/05/25 10:45:10;;;;;;;9.77;4.00;;;15.90;99.90;;;;;;5053096;28;20180;-46
2022/05/25 10:47:45;;;;;;;17.55;5.72;;;15.80;99.90;;;;;;5053610;28;20083;-49
2022/05/25 10:50:39;;;;;;;12.73;5.20;;;15.60;99.90;;;;;;5053782;28;20134;-45
2022/05/25 10:53:41;;;;;;;10.43;6.05;;;15.30;99.90;;;;;;5051091;28;20040;-46
2022/05/25 10:56:21;;;;;;;8.43;4.95;;;14.90;99.90;;;;;;5054339;28;20032;-46
2022/05/25 10:59:21;;;;;;;8.48;4.13;;;17.10;99.90;;;;;;5051508;28;20368;-44
2022/05/25 11:02:19;;;;;;;10.23;3.45;;;14.70;99.90;;;;;;5051099;28;20225;-43
2022/05/25 11:04:52;;;;;;;4.43;2.63;;;14.60;99.90;;;;;;4990440;28;20050;-48
2022/05/25 11:07:38;;;;;;;6.50;2.75;;;14.40;99.90;;;;;;4989973;28;20100;-45
2022/05/25 11:10:31;;;;;;;5.35;3.25;;;16.20;99.90;;;;;;4991040;28;20517;-44
2022/05/25 11:13:33;;;;;;;4.93;2.95;;;14.50;99.90;;;;;;4992538;28;20080;-46
2022/05/25 11:16:21;;;;;;;5.68;3.17;;;14.70;99.90;;;;;;4990274;28;20049;-44
2022/05/25 11:19:15;;;;;;;7.05;3.42;;;15.30;99.90;;;;;;4992244;28;20064;-45
2022/05/25 11:21:55;;;;;;;6.65;3.85;;;15.70;99.90;;;;;;4991222;28;20092;-47
2022/05/25 11:24:30;;;;;;;8.50;5.13;;;15.60;99.90;;;;;;4991894;28;20038;-44
2022/05/25 11:27:04;;;;;;;9.18;5.88;;;16.10;99.90;;;;;;4992021;28;20054;-48
2022/05/25 11:30:09;;;;;;;9.02;5.30;;;15.90;99.90;;;;;;4989586;28;20053;-47
2022/05/25 11:32:40;;;;;;;11.02;6.38;;;16.60;99.90;;;;;;4965298;28;20606;-48
2022/05/25 11:35:48;;;;;;;9.38;6.35;;;17.10;99.90;;;;;;4961833;28;20050;-50
2022/05/25 11:38:35;;;;;;;9.43;6.10;;;17.70;99.90;;;;;;4929172;28;20063;-46
2022/05/25 11:41:15;;;;;;;12.13;6.90;;;17.80;99.90;;;;;;4936843;28;20059;-44
2022/05/25 11:43:51;;;;;;;9.38;4.32;;;18.00;99.90;;;;;;4950663;28;20057;-45
2022/05/25 11:46:45;;;;;;;7.80;4.35;;;17.80;99.90;;;;;;4947990;28;20039;-48
2022/05/25 11:49:29;;;;;;;8.40;3.00;;;17.70;99.90;;;;;;4949850;28;20046;-45
2022/05/25 11:52:32;;;;;;;9.05;2.17;;;17.40;99.90;;;;;;4950838;28;20713;-47
2022/05/25 11:55:16;;;;;;;7.88;1.33;;;17.60;99.90;;;;;;4952091;28;20533;-46
2022/05/25 11:57:55;;;;;;;4.85;1.00;;;17.60;99.90;;;;;;4950409;28;20053;-44
2022/05/25 12:00:32;;;;;;;2.63;0.70;;;17.30;99.90;;;;;;4935296;28;20051;-46
2022/05/25 12:03:47;;;;;;;4.28;0.90;;;17.30;99.90;;;;;;4951688;28;20051;-47
2022/05/25 12:06:37;;;;;;;5.10;1.20;;;17.40;99.90;;;;;;4969432;28;20068;-45
2022/05/25 12:09:23;;;;;;;4.75;0.82;;;17.40;99.90;;;;;;5008348;28;20060;-45
2022/05/25 12:12:16;;;;;;;5.60;0.70;;;17.30;99.90;;;;;;5009685;28;20092;-46
2022/05/25 12:15:14;;;;;;;4.95;0.80;;;17.30;99.90;;;;;;5019195;28;20529;-43
2022/05/25 12:18:03;;;;;;;4.45;0.90;;;17.50;99.90;;;;;;5046664;28;20093;-45
2022/05/25 12:20:39;;;;;;;4.90;0.88;;;17.60;99.90;;;;;;5048523;28;21118;-44
2022/05/25 12:23:12;;;;;;;3.53;1.10;;;17.60;99.90;;;;;;5046755;28;20052;-44
2022/05/25 12:26:01;;;;;;;6.57;1.13;;;15.60;99.90;;;;;;5017422;28;20071;-48
2022/05/25 12:28:40;;;;;;;3.00;0.90;;;17.70;99.90;;;;;;5047122;28;20053;-47
2022/05/25 12:31:11;;;;;;;8.27;1.30;;;17.90;99.90;;;;;;5047698;28;20040;-46
2022/05/25 12:33:37;;;;;;;3.80;0.90;;;19.00;99.90;;;;;;5048459;28;20041;-45
2022/05/25 12:36:07;;;;;;;6.22;0.90;;;18.30;99.90;;;;;;5047337;28;20095;-47
2022/05/25 12:38:37;;;;;;;6.38;0.82;;;18.60;99.90;;;;;;5047885;28;20041;-45
2022/05/25 12:41:26;;;;;;;4.93;0.68;;;18.70;99.90;;;;;;5048632;28;20829;-48
2022/05/25 12:43:53;;;;;;;2.75;1.15;;;18.50;99.90;;;;;;5030427;28;20131;-45
2022/05/25 12:49:34;;;;;;;4.05;0.60;;;20.60;99.90;;;;;;5047197;28;21068;-45
2022/05/25 12:52:00;;;;;;;4.13;0.63;;;18.60;99.90;;;;;;5049201;28;20072;-42
2022/05/25 12:54:33;;;;;;;3.15;0.70;;;18.50;99.90;;;;;;5049617;28;20194;-45
2022/05/25 12:57:01;;;;;;;1.98;0.70;;;18.20;99.90;;;;;;5054885;28;20048;-44
2022/05/25 12:59:35;;;;;;;4.47;1.05;;;18.60;99.90;;;;;;5054068;28;20140;-45
2022/05/25 13:02:19;;;;;;;6.85;0.80;;;18.80;99.90;;;;;;5054479;28;20045;-48
2022/05/25 13:04:47;;;;;;;4.03;0.60;;;19.00;99.90;;;;;;5054601;28;20122;-44
2022/05/25 13:07:33;;;;;;;4.75;0.90;;;18.90;99.90;;;;;;5056533;28;20075;-46
2022/05/25 13:09:58;;;;;;;4.18;0.80;;;18.70;99.90;;;;;;5051088;28;20044;-47
2022/05/25 13:12:39;;;;;;;5.43;0.80;;;18.60;99.90;;;;;;5054532;28;20036;-44
2022/05/25 13:15:28;;;;;;;7.40;1.00;;;19.10;99.90;;;;;;5054526;28;20084;-43
2022/05/25 13:17:57;;;;;;;3.17;0.60;;;18.20;99.90;;;;;;5050720;28;20049;-48
2022/05/25 13:20:30;;;;;;;2.55;0.70;;;18.00;99.90;;;;;;5050504;28;20048;-45
2022/05/25 13:23:00;;;;;;;5.32;0.70;;;17.80;99.90;;;;;;5051979;28;20052;-46
2022/05/25 13:25:50;;;;;;;4.05;0.80;;;17.80;99.90;;;;;;5051990;28;20476;-45
2022/05/25 13:28:51;;;;;;;2.95;0.60;;;17.50;99.90;;;;;;5051123;28;20068;-47
2022/05/25 13:31:34;;;;;;;3.67;0.82;;;17.90;99.90;;;;;;4974870;28;20062;-44
2022/05/25 13:34:11;;;;;;;4.55;0.50;;;17.80;99.90;;;;;;4977270;28;20057;-46
2022/05/25 13:36:55;;;;;;;7.70;0.93;;;17.00;99.90;;;;;;4976842;28;20081;-49
2022/05/25 13:39:25;;;;;;;6.75;0.90;;;17.20;99.90;;;;;;4975840;28;20128;-48